sensor_id;sensor_type;location;lat;lon;timestamp;temperature;humidity
31263;DHT22;17892;52.080;9.006;2024-02-15T00:00:13;13.40;99.90
31263;DHT22;17892;52.080;9.006;2024-02-15T00:02:40;13.40;99.90
31263;DHT22;17892;52.080;9.006;2024-02-15T00:05:10;13.40;99.90
31263;DHT22;17892;52.080;9.006;2024-02-15T00:07:36;13.40;99.90
31263;DHT22;17892;52.080;9.006;2024-02-15T00:10:02;13.40;99.90
31263;DHT22;17892;52.080;9.006;2024-02-15T00:12:29;13.40;99.90
31263;DHT22;17892;52.080;9.006;2024-02-15T00:14:55;13.40;99.90
31263;DHT22;17892;52.080;9.006;2024-02-15T00:17:24;13.40;99.90
31263;DHT22;17892;52.080;9.006;2024-02-15T00:19:50;13.40;99.90
31263;DHT22;17892;52.080;9.006;2024-02-15T00:22:16;13.40;99.90
31263;DHT22;17892;52.080;9.006;2024-02-15T00:24:42;13.40;99.90
31263;DHT22;17892;52.080;9.006;2024-02-15T00:27:09;13.40;99.90
31263;DHT22;17892;52.080;9.006;2024-02-15T00:29:36;13.40;99.90
31263;DHT22;17892;52.080;9.006;2024-02-15T00:32:02;13.40;99.90
31263;DHT22;17892;52.080;9.006;2024-02-15T00:34:29;13.40;99.90
31263;DHT22;17892;52.080;9.006;2024-02-15T00:36:54;13.40;99.90
31263;DHT22;17892;52.080;9.006;2024-02-15T00:39:20;13.40;99.90
31263;DHT22;17892;52.080;9.006;2024-02-15T00:41:46;13.40;99.90
31263;DHT22;17892;52.080;9.006;2024-02-15T00:44:12;13.40;99.90
31263;DHT22;17892;52.080;9.006;2024-02-15T00:46:38;13.40;99.90
31263;DHT22;17892;52.080;9.006;2024-02-15T00:49:04;13.40;99.90
31263;DHT22;17892;52.080;9.006;2024-02-15T00:51:32;13.40;99.90
31263;DHT22;17892;52.080;9.006;2024-02-15T00:54:03;13.40;99.90
31263;DHT22;17892;52.080;9.006;2024-02-15T00:56:30;13.40;99.90
31263;DHT22;17892;52.080;9.006;2024-02-15T00:58:56;13.40;99.90
31263;DHT22;17892;52.080;9.006;2024-02-15T01:01:22;13.40;99.90
31263;DHT22;17892;52.080;9.006;2024-02-15T01:03:48;13.40;99.90
31263;DHT22;17892;52.080;9.006;2024-02-15T01:06:14;13.40;99.90
31263;DHT22;17892;52.080;9.006;2024-02-15T01:08:39;13.40;99.90
31263;DHT22;17892;52.080;9.006;2024-02-15T01:11:05;13.40;99.90
31263;DHT22;17892;52.080;9.006;2024-02-15T01:13:31;13.40;99.90
31263;DHT22;17892;52.080;9.006;2024-02-15T01:15:57;13.40;99.90
31263;DHT22;17892;52.080;9.006;2024-02-15T01:18:23;13.40;99.90
31263;DHT22;17892;52.080;9.006;2024-02-15T01:20:49;13.40;99.90
31263;DHT22;17892;52.080;9.006;2024-02-15T01:23:14;13.40;99.90
31263;DHT22;17892;52.080;9.006;2024-02-15T01:25:40;13.40;99.90
31263;DHT22;17892;52.080;9.006;2024-02-15T01:28:06;13.40;99.90
31263;DHT22;17892;52.080;9.006;2024-02-15T01:30:32;13.40;99.90
31263;DHT22;17892;52.080;9.006;2024-02-15T01:32:58;13.40;99.90
31263;DHT22;17892;52.080;9.006;2024-02-15T01:35:25;13.40;99.90
31263;DHT22;17892;52.080;9.006;2024-02-15T01:37:50;13.40;99.90
31263;DHT22;17892;52.080;9.006;2024-02-15T01:40:16;13.40;99.90
31263;DHT22;17892;52.080;9.006;2024-02-15T01:42:44;13.40;99.90
31263;DHT22;17892;52.080;9.006;2024-02-15T01:45:10;13.40;99.90
31263;DHT22;17892;52.080;9.006;2024-02-15T01:47:38;13.40;99.90
31263;DHT22;17892;52.080;9.006;2024-02-15T01:50:06;13.40;99.90
31263;DHT22;17892;52.080;9.006;2024-02-15T01:52:32;13.40;99.90
31263;DHT22;17892;52.080;9.006;2024-02-15T01:54:59;13.40;99.90
31263;DHT22;17892;52.080;9.006;2024-02-15T01:57:37;13.40;99.90
31263;DHT22;17892;52.080;9.006;2024-02-15T02:00:06;13.40;99.90
31263;DHT22;17892;52.080;9.006;2024-02-15T02:02:35;13.40;99.90
31263;DHT22;17892;52.080;9.006;2024-02-15T02:05:02;13.40;99.90
31263;DHT22;17892;52.080;9.006;2024-02-15T02:07:28;13.40;99.90
31263;DHT22;17892;52.080;9.006;2024-02-15T02:09:54;13.40;99.90
31263;DHT22;17892;52.080;9.006;2024-02-15T02:12:20;13.40;99.90
31263;DHT22;17892;52.080;9.006;2024-02-15T02:14:45;13.40;99.90
31263;DHT22;17892;52.080;9.006;2024-02-15T02:17:15;13.40;99.90
31263;DHT22;17892;52.080;9.006;2024-02-15T02:19:41;13.40;99.90
31263;DHT22;17892;52.080;9.006;2024-02-15T02:22:09;13.40;99.90
31263;DHT22;17892;52.080;9.006;2024-02-15T02:25:26;13.40;99.90
31263;DHT22;17892;52.080;9.006;2024-02-15T02:27:36;13.40;99.90
31263;DHT22;17892;52.080;9.006;2024-02-15T02:30:12;13.40;99.90
31263;DHT22;17892;52.080;9.006;2024-02-15T02:32:47;13.40;99.90
31263;DHT22;17892;52.080;9.006;2024-02-15T02:35:14;13.40;99.90
31263;DHT22;17892;52.080;9.006;2024-02-15T02:37:42;13.40;99.90
31263;DHT22;17892;52.080;9.006;2024-02-15T02:40:08;13.40;99.90
31263;DHT22;17892;52.080;9.006;2024-02-15T02:42:53;13.40;99.90
31263;DHT22;17892;52.080;9.006;2024-02-15T02:45:26;13.40;99.90
31263;DHT22;17892;52.080;9.006;2024-02-15T02:47:52;13.40;99.90
31263;DHT22;17892;52.080;9.006;2024-02-15T02:50:19;13.40;99.90
31263;DHT22;17892;52.080;9.006;2024-02-15T02:52:48;13.40;99.90
31263;DHT22;17892;52.080;9.006;2024-02-15T02:55:14;13.40;99.90
31263;DHT22;17892;52.080;9.006;2024-02-15T02:57:41;13.40;99.90
31263;DHT22;17892;52.080;9.006;2024-02-15T03:00:12;13.40;99.90
31263;DHT22;17892;52.080;9.006;2024-02-15T03:02:42;13.40;99.90
31263;DHT22;17892;52.080;9.006;2024-02-15T03:05:11;13.40;99.90
31263;DHT22;17892;52.080;9.006;2024-02-15T03:07:38;13.40;99.90
31263;DHT22;17892;52.080;9.006;2024-02-15T03:10:09;13.40;99.90
31263;DHT22;17892;52.080;9.006;2024-02-15T03:12:35;13.40;99.90
31263;DHT22;17892;52.080;9.006;2024-02-15T03:15:05;13.40;99.90
31263;DHT22;17892;52.080;9.006;2024-02-15T03:17:42;13.40;99.90
31263;DHT22;17892;52.080;9.006;2024-02-15T03:20:11;13.40;99.90
31263;DHT22;17892;52.080;9.006;2024-02-15T03:22:54;13.40;99.90
31263;DHT22;17892;52.080;9.006;2024-02-15T03:25:25;13.40;99.90
31263;DHT22;17892;52.080;9.006;2024-02-15T03:27:55;13.40;99.90
31263;DHT22;17892;52.080;9.006;2024-02-15T03:30:23;13.40;99.90
31263;DHT22;17892;52.080;9.006;2024-02-15T03:32:57;13.40;99.90
31263;DHT22;17892;52.080;9.006;2024-02-15T03:35:25;13.30;99.90
31263;DHT22;17892;52.080;9.006;2024-02-15T03:37:52;13.40;99.90
31263;DHT22;17892;52.080;9.006;2024-02-15T03:40:19;13.40;99.90
31263;DHT22;17892;52.080;9.006;2024-02-15T03:42:45;13.50;99.90
31263;DHT22;17892;52.080;9.006;2024-02-15T03:45:17;13.40;99.90
31263;DHT22;17892;52.080;9.006;2024-02-15T03:47:43;13.40;99.90
31263;DHT22;17892;52.080;9.006;2024-02-15T03:50:09;13.40;99.90
31263;DHT22;17892;52.080;9.006;2024-02-15T03:52:35;13.40;99.90
31263;DHT22;17892;52.080;9.006;2024-02-15T03:55:02;13.50;99.90
31263;DHT22;17892;52.080;9.006;2024-02-15T03:57:28;13.50;99.90
31263;DHT22;17892;52.080;9.006;2024-02-15T03:59:54;13.50;99.90
31263;DHT22;17892;52.080;9.006;2024-02-15T04:02:22;13.50;99.90
31263;DHT22;17892;52.080;9.006;2024-02-15T04:04:54;13.50;99.90
31263;DHT22;17892;52.080;9.006;2024-02-15T04:07:21;13.50;99.90
31263;DHT22;17892;52.080;9.006;2024-02-15T04:09:48;13.50;99.90
31263;DHT22;17892;52.080;9.006;2024-02-15T04:12:14;13.50;99.90
31263;DHT22;17892;52.080;9.006;2024-02-15T04:14:40;13.50;99.90
31263;DHT22;17892;52.080;9.006;2024-02-15T04:17:07;13.50;99.90
31263;DHT22;17892;52.080;9.006;2024-02-15T04:19:33;13.50;99.90
31263;DHT22;17892;52.080;9.006;2024-02-15T04:21:59;13.50;99.90
31263;DHT22;17892;52.080;9.006;2024-02-15T04:24:33;13.50;99.90
31263;DHT22;17892;52.080;9.006;2024-02-15T04:27:00;13.50;99.90
31263;DHT22;17892;52.080;9.006;2024-02-15T04:29:25;13.50;99.90
31263;DHT22;17892;52.080;9.006;2024-02-15T04:31:51;13.50;99.90
31263;DHT22;17892;52.080;9.006;2024-02-15T04:34:19;13.50;99.90
31263;DHT22;17892;52.080;9.006;2024-02-15T04:36:47;13.50;99.90
31263;DHT22;17892;52.080;9.006;2024-02-15T04:39:19;13.50;99.90
31263;DHT22;17892;52.080;9.006;2024-02-15T04:41:53;13.50;99.90
31263;DHT22;17892;52.080;9.006;2024-02-15T04:44:20;13.50;99.90
31263;DHT22;17892;52.080;9.006;2024-02-15T04:46:47;13.50;99.90
31263;DHT22;17892;52.080;9.006;2024-02-15T04:49:15;13.50;99.90
31263;DHT22;17892;52.080;9.006;2024-02-15T04:51:40;13.50;99.90
31263;DHT22;17892;52.080;9.006;2024-02-15T04:54:07;13.50;99.90
31263;DHT22;17892;52.080;9.006;2024-02-15T04:56:34;13.50;99.90
31263;DHT22;17892;52.080;9.006;2024-02-15T04:59:01;13.50;99.90
31263;DHT22;17892;52.080;9.006;2024-02-15T05:01:27;13.50;99.90
31263;DHT22;17892;52.080;9.006;2024-02-15T05:03:54;13.50;99.90
31263;DHT22;17892;52.080;9.006;2024-02-15T05:06:21;13.50;99.90
31263;DHT22;17892;52.080;9.006;2024-02-15T05:08:46;13.60;99.90
31263;DHT22;17892;52.080;9.006;2024-02-15T05:11:13;13.60;99.90
31263;DHT22;17892;52.080;9.006;2024-02-15T05:13:43;13.60;99.90
31263;DHT22;17892;52.080;9.006;2024-02-15T05:16:10;13.60;99.90
31263;DHT22;17892;52.080;9.006;2024-02-15T05:18:36;13.50;99.90
31263;DHT22;17892;52.080;9.006;2024-02-15T05:21:03;13.60;99.90
31263;DHT22;17892;52.080;9.006;2024-02-15T05:23:30;13.60;99.90
31263;DHT22;17892;52.080;9.006;2024-02-15T05:25:56;13.60;99.90
31263;DHT22;17892;52.080;9.006;2024-02-15T05:28:22;13.60;99.90
31263;DHT22;17892;52.080;9.006;2024-02-15T05:31:15;13.60;99.90
31263;DHT22;17892;52.080;9.006;2024-02-15T05:33:43;13.60;99.90
31263;DHT22;17892;52.080;9.006;2024-02-15T05:36:12;13.60;99.90
31263;DHT22;17892;52.080;9.006;2024-02-15T05:38:39;13.60;99.90
31263;DHT22;17892;52.080;9.006;2024-02-15T05:41:06;13.60;99.90
31263;DHT22;17892;52.080;9.006;2024-02-15T05:43:35;13.60;99.90
31263;DHT22;17892;52.080;9.006;2024-02-15T05:46:05;13.60;99.90
31263;DHT22;17892;52.080;9.006;2024-02-15T05:48:34;13.60;99.90
31263;DHT22;17892;52.080;9.006;2024-02-15T05:51:04;13.60;99.90
31263;DHT22;17892;52.080;9.006;2024-02-15T05:53:31;13.60;99.90
31263;DHT22;17892;52.080;9.006;2024-02-15T05:56:05;13.60;99.90
31263;DHT22;17892;52.080;9.006;2024-02-15T05:58:34;13.60;99.90
31263;DHT22;17892;52.080;9.006;2024-02-15T06:01:02;13.70;99.90
31263;DHT22;17892;52.080;9.006;2024-02-15T06:03:33;13.60;99.90
31263;DHT22;17892;52.080;9.006;2024-02-15T06:06:03;13.60;99.90
31263;DHT22;17892;52.080;9.006;2024-02-15T06:08:35;13.60;99.90
31263;DHT22;17892;52.080;9.006;2024-02-15T06:11:01;13.70;99.90
31263;DHT22;17892;52.080;9.006;2024-02-15T06:13:28;13.70;99.90
31263;DHT22;17892;52.080;9.006;2024-02-15T06:15:54;13.70;99.90
31263;DHT22;17892;52.080;9.006;2024-02-15T06:18:23;13.70;99.90
31263;DHT22;17892;52.080;9.006;2024-02-15T06:20:51;13.70;99.90
31263;DHT22;17892;52.080;9.006;2024-02-15T06:23:18;13.70;99.90
31263;DHT22;17892;52.080;9.006;2024-02-15T06:25:44;13.70;99.90
31263;DHT22;17892;52.080;9.006;2024-02-15T06:28:13;13.70;99.90
31263;DHT22;17892;52.080;9.006;2024-02-15T06:30:45;13.70;99.90
31263;DHT22;17892;52.080;9.006;2024-02-15T06:33:30;13.70;99.90
31263;DHT22;17892;52.080;9.006;2024-02-15T06:36:14;13.60;99.90
31263;DHT22;17892;52.080;9.006;2024-02-15T06:38:58;13.70;99.90
31263;DHT22;17892;52.080;9.006;2024-02-15T06:41:42;13.60;99.90
31263;DHT22;17892;52.080;9.006;2024-02-15T06:44:08;13.60;99.90
31263;DHT22;17892;52.080;9.006;2024-02-15T06:46:34;13.60;99.90
31263;DHT22;17892;52.080;9.006;2024-02-15T06:49:00;13.50;99.90
31263;DHT22;17892;52.080;9.006;2024-02-15T06:51:26;13.50;99.90
31263;DHT22;17892;52.080;9.006;2024-02-15T06:53:52;13.50;99.90
31263;DHT22;17892;52.080;9.006;2024-02-15T06:56:21;13.50;99.90
31263;DHT22;17892;52.080;9.006;2024-02-15T06:58:47;13.50;99.90
31263;DHT22;17892;52.080;9.006;2024-02-15T07:01:14;13.50;99.90
31263;DHT22;17892;52.080;9.006;2024-02-15T07:03:42;13.50;99.90
31263;DHT22;17892;52.080;9.006;2024-02-15T07:06:10;13.50;99.90
31263;DHT22;17892;52.080;9.006;2024-02-15T07:08:39;13.50;99.90
31263;DHT22;17892;52.080;9.006;2024-02-15T07:11:07;13.50;99.90
31263;DHT22;17892;52.080;9.006;2024-02-15T07:13:37;13.50;99.90
31263;DHT22;17892;52.080;9.006;2024-02-15T07:16:07;13.50;99.90
31263;DHT22;17892;52.080;9.006;2024-02-15T07:18:33;13.50;99.90
31263;DHT22;17892;52.080;9.006;2024-02-15T07:20:59;13.50;99.90
31263;DHT22;17892;52.080;9.006;2024-02-15T07:23:26;13.50;99.90
31263;DHT22;17892;52.080;9.006;2024-02-15T07:25:52;13.60;99.90
31263;DHT22;17892;52.080;9.006;2024-02-15T07:28:20;13.50;99.90
31263;DHT22;17892;52.080;9.006;2024-02-15T07:30:46;13.60;99.90
31263;DHT22;17892;52.080;9.006;2024-02-15T07:33:16;13.60;99.90
31263;DHT22;17892;52.080;9.006;2024-02-15T07:35:43;13.60;99.90
31263;DHT22;17892;52.080;9.006;2024-02-15T07:38:09;13.60;99.90
31263;DHT22;17892;52.080;9.006;2024-02-15T07:40:35;13.60;99.90
31263;DHT22;17892;52.080;9.006;2024-02-15T07:43:01;13.60;99.90
31263;DHT22;17892;52.080;9.006;2024-02-15T07:45:28;13.60;99.90
31263;DHT22;17892;52.080;9.006;2024-02-15T07:47:54;13.60;99.90
31263;DHT22;17892;52.080;9.006;2024-02-15T07:50:20;13.60;99.90
31263;DHT22;17892;52.080;9.006;2024-02-15T07:52:48;13.60;99.90
31263;DHT22;17892;52.080;9.006;2024-02-15T07:55:14;13.60;99.90
31263;DHT22;17892;52.080;9.006;2024-02-15T07:57:40;13.60;99.90
31263;DHT22;17892;52.080;9.006;2024-02-15T08:00:07;13.70;99.90
31263;DHT22;17892;52.080;9.006;2024-02-15T08:02:39;13.60;99.90
31263;DHT22;17892;52.080;9.006;2024-02-15T08:05:09;13.60;99.90
31263;DHT22;17892;52.080;9.006;2024-02-15T08:07:46;13.60;99.90
31263;DHT22;17892;52.080;9.006;2024-02-15T08:10:13;13.60;99.90
31263;DHT22;17892;52.080;9.006;2024-02-15T08:12:43;13.60;99.90
31263;DHT22;17892;52.080;9.006;2024-02-15T08:15:11;13.60;99.90
31263;DHT22;17892;52.080;9.006;2024-02-15T08:17:41;13.60;99.90
31263;DHT22;17892;52.080;9.006;2024-02-15T08:20:10;13.60;99.90
31263;DHT22;17892;52.080;9.006;2024-02-15T08:22:36;13.60;99.90
31263;DHT22;17892;52.080;9.006;2024-02-15T08:25:12;13.60;99.90
31263;DHT22;17892;52.080;9.006;2024-02-15T08:27:41;13.60;99.90
31263;DHT22;17892;52.080;9.006;2024-02-15T08:30:10;13.60;99.90
31263;DHT22;17892;52.080;9.006;2024-02-15T08:32:40;13.60;99.90
31263;DHT22;17892;52.080;9.006;2024-02-15T08:35:14;13.60;99.90
31263;DHT22;17892;52.080;9.006;2024-02-15T08:37:40;13.60;99.90
31263;DHT22;17892;52.080;9.006;2024-02-15T08:40:10;13.70;99.90
31263;DHT22;17892;52.080;9.006;2024-02-15T08:42:41;13.60;99.90
31263;DHT22;17892;52.080;9.006;2024-02-15T08:45:07;13.70;99.90
31263;DHT22;17892;52.080;9.006;2024-02-15T08:47:36;13.70;99.90
31263;DHT22;17892;52.080;9.006;2024-02-15T08:50:06;13.80;99.90
31263;DHT22;17892;52.080;9.006;2024-02-15T08:52:37;13.80;99.90
31263;DHT22;17892;52.080;9.006;2024-02-15T08:55:09;13.80;99.90
31263;DHT22;17892;52.080;9.006;2024-02-15T08:57:36;13.90;99.90
31263;DHT22;17892;52.080;9.006;2024-02-15T09:00:04;14.00;99.90
31263;DHT22;17892;52.080;9.006;2024-02-15T09:02:35;14.00;99.90
31263;DHT22;17892;52.080;9.006;2024-02-15T09:05:00;14.00;99.90
31263;DHT22;17892;52.080;9.006;2024-02-15T09:07:26;14.00;99.90
31263;DHT22;17892;52.080;9.006;2024-02-15T09:09:52;14.00;99.90
31263;DHT22;17892;52.080;9.006;2024-02-15T09:12:17;14.10;99.90
31263;DHT22;17892;52.080;9.006;2024-02-15T09:14:43;14.10;99.90
31263;DHT22;17892;52.080;9.006;2024-02-15T09:17:09;14.10;99.90
31263;DHT22;17892;52.080;9.006;2024-02-15T09:19:35;14.10;99.90
31263;DHT22;17892;52.080;9.006;2024-02-15T09:22:01;14.00;99.90
31263;DHT22;17892;52.080;9.006;2024-02-15T09:24:30;14.10;99.90
31263;DHT22;17892;52.080;9.006;2024-02-15T09:26:56;14.00;99.90
31263;DHT22;17892;52.080;9.006;2024-02-15T09:29:22;14.00;99.90
31263;DHT22;17892;52.080;9.006;2024-02-15T09:31:47;14.00;99.90
31263;DHT22;17892;52.080;9.006;2024-02-15T09:34:14;14.00;99.90
31263;DHT22;17892;52.080;9.006;2024-02-15T09:36:39;14.00;99.90
31263;DHT22;17892;52.080;9.006;2024-02-15T09:39:05;14.00;99.90
31263;DHT22;17892;52.080;9.006;2024-02-15T09:41:32;14.00;99.90
31263;DHT22;17892;52.080;9.006;2024-02-15T09:43:59;14.00;99.90
31263;DHT22;17892;52.080;9.006;2024-02-15T09:46:26;14.00;99.90
31263;DHT22;17892;52.080;9.006;2024-02-15T09:48:55;14.00;99.90
31263;DHT22;17892;52.080;9.006;2024-02-15T09:51:26;14.00;99.90
31263;DHT22;17892;52.080;9.006;2024-02-15T09:53:57;13.90;99.90
31263;DHT22;17892;52.080;9.006;2024-02-15T09:56:24;14.00;99.90
31263;DHT22;17892;52.080;9.006;2024-02-15T09:58:51;14.00;99.90
31263;DHT22;17892;52.080;9.006;2024-02-15T10:01:20;14.00;99.90
31263;DHT22;17892;52.080;9.006;2024-02-15T10:03:49;14.00;99.90
31263;DHT22;17892;52.080;9.006;2024-02-15T10:06:17;14.00;99.90
31263;DHT22;17892;52.080;9.006;2024-02-15T10:08:44;14.00;99.90
31263;DHT22;17892;52.080;9.006;2024-02-15T10:11:10;14.00;99.90
31263;DHT22;17892;52.080;9.006;2024-02-15T10:13:36;14.10;99.90
31263;DHT22;17892;52.080;9.006;2024-02-15T10:18:45;14.10;99.90
31263;DHT22;17892;52.080;9.006;2024-02-15T10:21:24;14.10;99.90
31263;DHT22;17892;52.080;9.006;2024-02-15T10:24:05;14.10;99.90
31263;DHT22;17892;52.080;9.006;2024-02-15T10:26:32;14.10;99.90
31263;DHT22;17892;52.080;9.006;2024-02-15T10:29:11;14.10;99.90
31263;DHT22;17892;52.080;9.006;2024-02-15T10:31:38;14.10;99.90
31263;DHT22;17892;52.080;9.006;2024-02-15T10:34:07;14.10;99.90
31263;DHT22;17892;52.080;9.006;2024-02-15T10:36:33;14.10;99.90
31263;DHT22;17892;52.080;9.006;2024-02-15T10:39:16;14.10;99.90
31263;DHT22;17892;52.080;9.006;2024-02-15T10:41:45;14.10;99.90
31263;DHT22;17892;52.080;9.006;2024-02-15T10:44:23;14.10;99.90
31263;DHT22;17892;52.080;9.006;2024-02-15T10:46:51;14.10;99.90
31263;DHT22;17892;52.080;9.006;2024-02-15T10:49:21;14.10;99.90
31263;DHT22;17892;52.080;9.006;2024-02-15T10:51:57;14.10;99.90
31263;DHT22;17892;52.080;9.006;2024-02-15T10:57:37;14.20;99.90
31263;DHT22;17892;52.080;9.006;2024-02-15T11:00:06;14.20;99.90
31263;DHT22;17892;52.080;9.006;2024-02-15T11:02:42;14.10;99.90
31263;DHT22;17892;52.080;9.006;2024-02-15T11:05:10;14.10;99.90
31263;DHT22;17892;52.080;9.006;2024-02-15T11:07:40;14.10;99.90
31263;DHT22;17892;52.080;9.006;2024-02-15T11:10:07;14.10;99.90
31263;DHT22;17892;52.080;9.006;2024-02-15T11:12:33;14.00;99.90
31263;DHT22;17892;52.080;9.006;2024-02-15T11:15:00;14.00;99.90
31263;DHT22;17892;52.080;9.006;2024-02-15T11:20:09;14.00;99.90
31263;DHT22;17892;52.080;9.006;2024-02-15T11:22:37;13.90;99.90
31263;DHT22;17892;52.080;9.006;2024-02-15T11:25:05;13.90;99.90
31263;DHT22;17892;52.080;9.006;2024-02-15T11:27:37;13.90;99.90
31263;DHT22;17892;52.080;9.006;2024-02-15T11:30:05;13.90;99.90
31263;DHT22;17892;52.080;9.006;2024-02-15T11:32:49;13.80;99.90
31263;DHT22;17892;52.080;9.006;2024-02-15T11:35:20;13.80;99.90
31263;DHT22;17892;52.080;9.006;2024-02-15T11:40:27;13.80;99.90
31263;DHT22;17892;52.080;9.006;2024-02-15T11:43:00;13.80;99.90
31263;DHT22;17892;52.080;9.006;2024-02-15T11:45:27;13.80;99.90
31263;DHT22;17892;52.080;9.006;2024-02-15T11:47:58;13.80;99.90
31263;DHT22;17892;52.080;9.006;2024-02-15T11:50:27;13.80;99.90
31263;DHT22;17892;52.080;9.006;2024-02-15T11:53:02;13.80;99.90
31263;DHT22;17892;52.080;9.006;2024-02-15T11:55:35;13.80;99.90
31263;DHT22;17892;52.080;9.006;2024-02-15T11:58:02;13.80;99.90
31263;DHT22;17892;52.080;9.006;2024-02-15T12:00:30;13.80;99.90
31263;DHT22;17892;52.080;9.006;2024-02-15T12:03:16;13.90;99.90
31263;DHT22;17892;52.080;9.006;2024-02-15T12:06:02;13.80;99.90
31263;DHT22;17892;52.080;9.006;2024-02-15T12:08:47;13.80;99.90
31263;DHT22;17892;52.080;9.006;2024-02-15T12:11:33;13.80;99.90
31263;DHT22;17892;52.080;9.006;2024-02-15T12:14:18;13.80;99.90
31263;DHT22;17892;52.080;9.006;2024-02-15T12:17:04;13.80;99.90
31263;DHT22;17892;52.080;9.006;2024-02-15T12:19:50;13.80;99.90
31263;DHT22;17892;52.080;9.006;2024-02-15T12:22:22;13.80;99.90
31263;DHT22;17892;52.080;9.006;2024-02-15T12:24:58;13.80;99.90
31263;DHT22;17892;52.080;9.006;2024-02-15T12:27:26;13.80;99.90
31263;DHT22;17892;52.080;9.006;2024-02-15T12:29:59;13.80;99.90
31263;DHT22;17892;52.080;9.006;2024-02-15T12:32:28;13.80;99.90
31263;DHT22;17892;52.080;9.006;2024-02-15T12:35:10;13.90;99.90
31263;DHT22;17892;52.080;9.006;2024-02-15T12:37:45;13.90;99.90
31263;DHT22;17892;52.080;9.006;2024-02-15T12:40:13;14.00;99.90
31263;DHT22;17892;52.080;9.006;2024-02-15T12:42:43;14.10;99.90
31263;DHT22;17892;52.080;9.006;2024-02-15T12:45:20;14.20;99.90
31263;DHT22;17892;52.080;9.006;2024-02-15T12:47:49;14.30;99.90
31263;DHT22;17892;52.080;9.006;2024-02-15T12:50:18;14.40;99.90
31263;DHT22;17892;52.080;9.006;2024-02-15T12:52:47;14.60;99.90
31263;DHT22;17892;52.080;9.006;2024-02-15T12:55:15;14.80;99.90
31263;DHT22;17892;52.080;9.006;2024-02-15T12:57:49;14.90;99.90
31263;DHT22;17892;52.080;9.006;2024-02-15T13:00:23;15.00;99.90
31263;DHT22;17892;52.080;9.006;2024-02-15T13:02:54;15.10;99.90
31263;DHT22;17892;52.080;9.006;2024-02-15T13:05:22;15.20;99.90
31263;DHT22;17892;52.080;9.006;2024-02-15T13:07:49;15.30;99.90
31263;DHT22;17892;52.080;9.006;2024-02-15T13:10:16;15.40;99.90
31263;DHT22;17892;52.080;9.006;2024-02-15T13:12:43;15.40;99.90
31263;DHT22;17892;52.080;9.006;2024-02-15T13:15:11;15.50;99.90
31263;DHT22;17892;52.080;9.006;2024-02-15T13:17:43;15.50;99.90
31263;DHT22;17892;52.080;9.006;2024-02-15T13:20:11;15.50;99.90
31263;DHT22;17892;52.080;9.006;2024-02-15T13:22:40;15.50;99.90
31263;DHT22;17892;52.080;9.006;2024-02-15T13:25:09;15.40;99.90
31263;DHT22;17892;52.080;9.006;2024-02-15T13:27:36;15.40;99.90
31263;DHT22;17892;52.080;9.006;2024-02-15T13:30:04;15.50;99.90
31263;DHT22;17892;52.080;9.006;2024-02-15T13:32:37;15.50;99.90
31263;DHT22;17892;52.080;9.006;2024-02-15T13:35:08;15.50;99.90
31263;DHT22;17892;52.080;9.006;2024-02-15T13:37:46;15.50;99.90
31263;DHT22;17892;52.080;9.006;2024-02-15T13:40:13;15.60;99.90
31263;DHT22;17892;52.080;9.006;2024-02-15T13:42:43;15.60;99.90
31263;DHT22;17892;52.080;9.006;2024-02-15T13:47:53;15.70;99.90
31263;DHT22;17892;52.080;9.006;2024-02-15T13:50:19;15.70;99.90
31263;DHT22;17892;52.080;9.006;2024-02-15T13:52:46;15.80;99.90
31263;DHT22;17892;52.080;9.006;2024-02-15T13:55:12;15.80;99.90
31263;DHT22;17892;52.080;9.006;2024-02-15T13:57:42;15.80;99.90
31263;DHT22;17892;52.080;9.006;2024-02-15T14:00:10;15.80;99.90
31263;DHT22;17892;52.080;9.006;2024-02-15T14:02:42;15.80;99.90
31263;DHT22;17892;52.080;9.006;2024-02-15T14:05:11;15.80;99.90
31263;DHT22;17892;52.080;9.006;2024-02-15T14:07:37;15.70;99.90
31263;DHT22;17892;52.080;9.006;2024-02-15T14:10:05;15.70;99.90
31263;DHT22;17892;52.080;9.006;2024-02-15T14:12:32;15.60;99.90
31263;DHT22;17892;52.080;9.006;2024-02-15T14:14:58;15.60;99.90
31263;DHT22;17892;52.080;9.006;2024-02-15T14:17:24;15.50;99.90
31263;DHT22;17892;52.080;9.006;2024-02-15T14:19:49;15.50;99.90
31263;DHT22;17892;52.080;9.006;2024-02-15T14:22:15;15.50;99.90
31263;DHT22;17892;52.080;9.006;2024-02-15T14:24:43;15.50;99.90
31263;DHT22;17892;52.080;9.006;2024-02-15T14:27:10;15.40;99.90
31263;DHT22;17892;52.080;9.006;2024-02-15T14:29:37;15.50;99.90
31263;DHT22;17892;52.080;9.006;2024-02-15T14:32:11;15.50;99.90
31263;DHT22;17892;52.080;9.006;2024-02-15T14:34:55;15.50;99.90
31263;DHT22;17892;52.080;9.006;2024-02-15T14:37:22;15.50;99.90
31263;DHT22;17892;52.080;9.006;2024-02-15T14:39:48;15.50;99.90
31263;DHT22;17892;52.080;9.006;2024-02-15T14:42:13;15.60;99.90
31263;DHT22;17892;52.080;9.006;2024-02-15T14:44:39;15.60;99.90
31263;DHT22;17892;52.080;9.006;2024-02-15T14:47:05;15.60;99.90
31263;DHT22;17892;52.080;9.006;2024-02-15T14:49:31;15.60;99.90
31263;DHT22;17892;52.080;9.006;2024-02-15T14:51:57;15.60;99.90
31263;DHT22;17892;52.080;9.006;2024-02-15T14:54:22;15.60;99.90
31263;DHT22;17892;52.080;9.006;2024-02-15T14:56:48;15.60;99.90
31263;DHT22;17892;52.080;9.006;2024-02-15T14:59:14;15.60;99.90
31263;DHT22;17892;52.080;9.006;2024-02-15T15:01:41;15.50;99.90
31263;DHT22;17892;52.080;9.006;2024-02-15T15:04:07;15.50;99.90
31263;DHT22;17892;52.080;9.006;2024-02-15T15:06:35;15.50;99.90
31263;DHT22;17892;52.080;9.006;2024-02-15T15:09:19;15.50;99.90
31263;DHT22;17892;52.080;9.006;2024-02-15T15:12:04;15.40;99.90
31263;DHT22;17892;52.080;9.006;2024-02-15T15:14:48;15.40;99.90
31263;DHT22;17892;52.080;9.006;2024-02-15T15:17:14;15.40;99.90
31263;DHT22;17892;52.080;9.006;2024-02-15T15:19:41;15.40;99.90
31263;DHT22;17892;52.080;9.006;2024-02-15T15:22:07;15.30;99.90
31263;DHT22;17892;52.080;9.006;2024-02-15T15:24:33;15.30;99.90
31263;DHT22;17892;52.080;9.006;2024-02-15T15:26:59;15.20;99.90
31263;DHT22;17892;52.080;9.006;2024-02-15T15:29:25;15.20;99.90
31263;DHT22;17892;52.080;9.006;2024-02-15T15:31:51;15.10;99.90
31263;DHT22;17892;52.080;9.006;2024-02-15T15:34:17;15.10;99.90
31263;DHT22;17892;52.080;9.006;2024-02-15T15:36:45;15.00;99.90
31263;DHT22;17892;52.080;9.006;2024-02-15T15:39:15;15.00;99.90
31263;DHT22;17892;52.080;9.006;2024-02-15T15:41:44;15.00;99.90
31263;DHT22;17892;52.080;9.006;2024-02-15T15:44:09;15.00;99.90
31263;DHT22;17892;52.080;9.006;2024-02-15T15:46:35;14.90;99.90
31263;DHT22;17892;52.080;9.006;2024-02-15T15:49:01;14.90;99.90
31263;DHT22;17892;52.080;9.006;2024-02-15T15:51:29;14.90;99.90
31263;DHT22;17892;52.080;9.006;2024-02-15T15:53:55;14.80;99.90